This is the latest recevied weather packets stored in our database for station/object TONGUE. If no packets are shown the sender has not sent any weather packets the latest 10 day(s).
| Time | Temp. | Humidity | Pressure | Rain* | Wind** | Luminosity | Snow |
|---|---|---|---|---|---|---|---|
| 1788360602 | 15° C | 100% | 0 hPa | - | - | - | - |
| 1788360003 | 15° C | 98% | 0 hPa | - | - | - | - |
| 1788358803 | 15° C | 95% | 0 hPa | - | - | - | - |
| 1788357603 | 15° C | 96% | 0 hPa | - | - | - | - |
| 1788357003 | 15° C | 98% | 0 hPa | - | - | - | - |
| 1788355203 | 13.89° C | 100% | 0 hPa | - | - | - | - |
| 1788354603 | 13.89° C | 99% | 0 hPa | - | - | - | - |
| 1788353402 | 13.89° C | 100% | 0 hPa | - | - | - | - |
| 1788352803 | 13.89° C | 99% | 0 hPa | - | - | - | - |
| 1788352203 | 13.89° C | 100% | 0 hPa | - | - | - | - |
| 1788351603 | 13.89° C | 99% | 0 hPa | - | - | - | - |
| 1788351003 | 13.89° C | 99% | 0 hPa | - | - | - | - |
| 1788349807 | 13.89° C | 99% | 0 hPa | - | - | - | - |
| 1788349203 | 13.89° C | 100% | 0 hPa | - | - | - | - |
| 1788348603 | 13.89° C | 99% | 0 hPa | - | - | - | - |
| 1788343209 | 13.89° C | 100% | 0 hPa | - | - | - | - |
| 1788342603 | 13.89° C | 100% | 0 hPa | - | - | - | - |
| 1788322203 | 15.56° C | 87% | 0 hPa | - | - | - | - |
| 1788321603 | 15.56° C | 87% | 0 hPa | - | - | - | - |
| 1788319202 | 16.11° C | 86% | 0 hPa | - | - | - | - |
| 1788318003 | 16.67° C | 82% | 0 hPa | - | - | - | - |
| 1788316803 | 16.67° C | 80% | 0 hPa | - | - | - | - |
| 1788315603 | 17.22° C | 77% | 0 hPa | - | - | - | - |
| 1788315003 | 17.22° C | 77% | 0 hPa | - | - | - | - |
| 1788313808 | 17.78° C | 75% | 0 hPa | - | - | - | - |
* Rain since midnight (hover to see other rain measurements)
** Current wind speed in m/s (hover to see current wind gust speed)